Time;durP1;ratioP1;P1;durP2;ratioP2;P2;SDS_P1;SDS_P2;PMS_P1;PMS_P2;Temp;Humidity;BMP_temperature;BMP_pressure;BME280_temperature;BME280_humidity;BME280_pressure;Samples;Min_cycle;Max_cycle;Signal;HPM_P1;HPM_P2
2022/09/28 00:01:18;;;;;;;19.63;3.95;;;;;;;;;;5109255;28;20080;-60
2022/09/28 00:03:45;;;;;;;14.82;4.40;;;;;;;;;;5107895;28;20464;-60
2022/09/28 00:06:14;;;;;;;19.17;4.30;;;;;;;;;;5108949;28;20024;-60
2022/09/28 00:08:41;;;;;;;22.85;4.93;;;;;;;;;;5109032;28;20032;-60
2022/09/28 00:11:11;;;;;;;16.65;4.82;;;;;;;;;;5109560;28;20392;-60
2022/09/28 00:13:38;;;;;;;14.93;4.30;;;;;;;;;;5109192;28;20036;-60
2022/09/28 00:16:09;;;;;;;17.23;4.53;;;;;;;;;;5109546;28;20024;-60
2022/09/28 00:18:36;;;;;;;25.38;4.93;;;;;;;;;;5095085;28;20487;-60
2022/09/28 00:21:07;;;;;;;23.85;5.70;;;;;;;;;;5107583;28;20447;-60
2022/09/28 00:24:11;;;;;;;24.13;5.00;;;;;;;;;;5103339;28;20032;-60
2022/09/28 00:26:22;;;;;;;24.77;5.05;;;;;;;;;;5088424;28;20119;-60
2022/09/28 00:28:51;;;;;;;19.65;4.68;;;;;;;;;;5091999;28;20032;-61
2022/09/28 00:31:18;;;;;;;21.25;5.35;;;;;;;;;;5090635;28;20402;-60
2022/09/28 00:33:45;;;;;;;25.30;5.13;;;;;;;;;;5088798;28;20048;-57
2022/09/28 00:36:12;;;;;;;22.58;5.15;;;;;;;;;;5105573;28;20431;-57
2022/09/28 00:38:39;;;;;;;25.80;5.75;;;;;;;;;;5108169;28;20046;-57
2022/09/28 00:41:07;;;;;;;30.05;6.10;;;;;;;;;;5105647;28;20120;-58
2022/09/28 00:43:33;;;;;;;22.85;5.72;;;;;;;;;;5084651;28;20114;-59
2022/09/28 00:46:03;;;;;;;27.77;5.60;;;;;;;;;;5073780;28;20082;-57
2022/09/28 00:48:33;;;;;;;28.55;6.15;;;;;;;;;;5072350;28;20443;-58
2022/09/28 00:51:02;;;;;;;26.10;5.95;;;;;;;;;;5073563;28;20036;-59
2022/09/28 00:53:33;;;;;;;33.45;5.93;;;;;;;;;;5074994;28;20082;-59
2022/09/28 00:56:06;;;;;;;25.92;6.15;;;;;;;;;;5091280;28;20049;-59
2022/09/28 00:58:38;;;;;;;30.33;5.80;;;;;;;;;;5095284;28;20060;-59
2022/09/28 01:01:05;;;;;;;28.90;5.65;;;;;;;;;;5094224;28;20034;-59
2022/09/28 01:03:32;;;;;;;27.65;6.03;;;;;;;;;;5074920;28;20074;-59
2022/09/28 01:06:01;;;;;;;30.58;6.75;;;;;;;;;;5088374;28;20032;-59
2022/09/28 01:08:29;;;;;;;30.02;6.20;;;;;;;;;;5074945;28;20024;-59
2022/09/28 01:10:57;;;;;;;36.60;7.85;;;;;;;;;;5086875;28;20027;-59
2022/09/28 01:13:24;;;;;;;39.22;8.38;;;;;;;;;;5076316;28;20036;-59
2022/09/28 01:16:06;;;;;;;39.67;10.15;;;;;;;;;;5085367;28;20032;-59
2022/09/28 01:18:43;;;;;;;43.53;12.45;;;;;;;;;;5083627;28;20036;-59
2022/09/28 01:21:13;;;;;;;58.45;14.80;;;;;;;;;;5073887;28;20029;-59
2022/09/28 01:23:55;;;;;;;52.38;15.07;;;;;;;;;;5082882;28;20036;-59
2022/09/28 01:26:25;;;;;;;55.97;14.45;;;;;;;;;;5093347;28;20508;-59
2022/09/28 01:28:56;;;;;;;55.55;14.30;;;;;;;;;;5094565;28;20058;-59
2022/09/28 01:31:26;;;;;;;56.40;14.30;;;;;;;;;;5094200;28;20035;-59
2022/09/28 01:33:56;;;;;;;53.75;13.77;;;;;;;;;;5093782;28;20089;-59
2022/09/28 01:36:53;;;;;;;48.33;12.57;;;;;;;;;;5088645;28;20032;-60
2022/09/28 01:39:31;;;;;;;52.63;11.75;;;;;;;;;;5073925;28;20044;-59
2022/09/28 01:42:00;;;;;;;46.97;12.20;;;;;;;;;;5079734;28;20027;-59
2022/09/28 01:44:30;;;;;;;51.30;11.40;;;;;;;;;;5074181;28;20036;-59
2022/09/28 01:47:03;;;;;;;56.70;11.93;;;;;;;;;;5089881;28;20020;-59
2022/09/28 01:49:34;;;;;;;38.65;10.38;;;;;;;;;;5089793;28;20114;-59
2022/09/28 01:52:13;;;;;;;44.67;10.27;;;;;;;;;;5089718;28;20122;-60
2022/09/28 01:54:43;;;;;;;39.55;9.68;;;;;;;;;;5088814;28;20051;-59
2022/09/28 01:57:26;;;;;;;34.33;9.55;;;;;;;;;;5081994;28;20481;-61
2022/09/28 01:59:52;;;;;;;;;;;;;;;;;;5091015;28;20028;-59
2022/09/28 02:02:54;;;;;;;;;;;;;;;;;;;;;
2022/09/28 02:05:24;;;;;;;34.10;9.40;;;;;;;;;;5078408;28;20032;-59
2022/09/28 02:08:13;;;;;;;37.90;9.23;;;;;;;;;;5092640;28;20039;-60
2022/09/28 02:10:44;;;;;;;40.47;9.02;;;;;;;;;;5092744;28;20020;-59
2022/09/28 02:13:11;;;;;;;33.90;8.20;;;;;;;;;;5092431;28;20086;-60
2022/09/28 02:15:41;;;;;;;40.42;8.15;;;;;;;;;;5092860;28;20074;-59
2022/09/28 02:18:08;;;;;;;29.27;8.18;;;;;;;;;;5093319;28;20056;-61
2022/09/28 02:20:36;;;;;;;36.03;8.32;;;;;;;;;;5090080;28;20032;-61
2022/09/28 02:23:04;;;;;;;32.70;8.07;;;;;;;;;;5090253;28;20031;-60
2022/09/28 02:25:44;;;;;;;39.97;7.75;;;;;;;;;;5090215;28;20390;-61
2022/09/28 02:28:13;;;;;;;32.50;7.95;;;;;;;;;;5092248;28;20051;-60
2022/09/28 02:30:41;;;;;;;33.10;8.43;;;;;;;;;;5093050;28;20506;-59
2022/09/28 02:33:11;;;;;;;31.75;7.60;;;;;;;;;;5093405;28;20093;-59
2022/09/28 02:35:38;;;;;;;31.33;7.50;;;;;;;;;;5093299;28;20046;-59
2022/09/28 02:38:05;;;;;;;24.75;7.18;;;;;;;;;;5093673;28;20081;-59
2022/09/28 02:40:33;;;;;;;30.98;7.70;;;;;;;;;;5093485;28;20081;-59
2022/09/28 02:43:00;;;;;;;33.83;7.40;;;;;;;;;;5093386;28;20135;-59
2022/09/28 02:45:33;;;;;;;34.75;7.55;;;;;;;;;;5093327;28;20047;-59
2022/09/28 02:48:03;;;;;;;25.30;6.72;;;;;;;;;;5092110;28;20034;-59
2022/09/28 02:50:31;;;;;;;26.85;6.55;;;;;;;;;;5093290;28;20058;-59
2022/09/28 02:53:01;;;;;;;25.42;6.82;;;;;;;;;;5093282;28;20043;-59
2022/09/28 02:55:31;;;;;;;20.17;5.95;;;;;;;;;;5093382;28;20102;-59
2022/09/28 02:58:00;;;;;;;21.33;5.75;;;;;;;;;;5093275;28;20067;-59
2022/09/28 03:00:29;;;;;;;23.20;6.15;;;;;;;;;;5093178;28;20023;-59
2022/09/28 03:03:08;;;;;;;24.85;5.93;;;;;;;;;;5093362;28;20051;-59
2022/09/28 03:05:42;;;;;;;20.48;5.70;;;;;;;;;;5093242;28;20020;-59
2022/09/28 03:08:29;;;;;;;15.82;5.50;;;;;;;;;;5092924;28;20392;-59
2022/09/28 03:10:59;;;;;;;18.52;5.30;;;;;;;;;;5093000;28;20069;-59
2022/09/28 03:13:29;;;;;;;18.10;5.90;;;;;;;;;;5093077;28;20032;-59
2022/09/28 03:16:08;;;;;;;19.35;6.15;;;;;;;;;;5093039;28;20020;-59
2022/09/28 03:18:35;;;;;;;14.40;5.07;;;;;;;;;;5093013;28;20381;-59
2022/09/28 03:21:03;;;;;;;20.27;5.82;;;;;;;;;;5092869;28;20024;-59
2022/09/28 03:23:31;;;;;;;18.20;5.90;;;;;;;;;;5093006;28;20493;-59
2022/09/28 03:25:58;;;;;;;16.40;5.18;;;;;;;;;;5092907;28;20025;-59
2022/09/28 03:28:25;;;;;;;16.60;4.97;;;;;;;;;;5092715;28;20032;-59
2022/09/28 03:30:52;;;;;;;18.25;5.20;;;;;;;;;;5092756;28;20031;-59
2022/09/28 03:33:19;;;;;;;15.18;4.95;;;;;;;;;;5092638;28;20044;-59
2022/09/28 03:35:50;;;;;;;18.35;4.63;;;;;;;;;;5092867;28;20040;-59
2022/09/28 03:38:18;;;;;;;16.38;5.32;;;;;;;;;;5092862;28;20020;-59
2022/09/28 03:40:52;;;;;;;12.75;5.10;;;;;;;;;;5092645;28;20115;-59
2022/09/28 03:43:19;;;;;;;14.32;4.50;;;;;;;;;;5091437;28;20067;-59
2022/09/28 03:45:51;;;;;;;12.55;4.22;;;;;;;;;;5092760;28;20491;-59
2022/09/28 03:48:22;;;;;;;16.52;5.03;;;;;;;;;;5092619;28;20633;-59
2022/09/28 03:50:48;;;;;;;14.45;4.65;;;;;;;;;;5092429;28;20650;-59
2022/09/28 03:53:15;;;;;;;11.57;4.20;;;;;;;;;;5092446;28;20047;-59
2022/09/28 03:55:42;;;;;;;11.93;4.35;;;;;;;;;;5092669;28;20489;-60
2022/09/28 03:58:09;;;;;;;13.80;4.72;;;;;;;;;;5092597;28;20051;-59
2022/09/28 04:00:37;;;;;;;14.30;4.28;;;;;;;;;;5092553;28;20038;-59
2022/09/28 04:03:04;;;;;;;12.75;4.25;;;;;;;;;;5092511;28;20498;-59
2022/09/28 04:05:31;;;;;;;14.70;4.53;;;;;;;;;;5092614;28;20025;-60
2022/09/28 04:07:58;;;;;;;10.00;4.05;;;;;;;;;;5092501;28;20020;-59
2022/09/28 04:10:26;;;;;;;12.60;3.70;;;;;;;;;;5092473;28;20020;-59
2022/09/28 04:12:56;;;;;;;14.15;3.83;;;;;;;;;;5092311;28;20048;-59
2022/09/28 04:15:26;;;;;;;10.93;3.88;;;;;;;;;;5092437;28;20490;-61
2022/09/28 04:17:53;;;;;;;14.70;4.30;;;;;;;;;;5092599;28;20097;-59
2022/09/28 04:20:20;;;;;;;7.45;3.22;;;;;;;;;;5095107;28;20525;-59
2022/09/28 04:22:47;;;;;;;13.25;3.65;;;;;;;;;;5096084;28;20035;-59
2022/09/28 04:25:15;;;;;;;10.40;3.83;;;;;;;;;;5096250;28;20062;-59
2022/09/28 04:30:26;;;;;;;11.55;3.83;;;;;;;;;;5096308;28;20398;-59
2022/09/28 04:32:53;;;;;;;9.93;3.33;;;;;;;;;;5095789;28;20040;-59
2022/09/28 04:35:20;;;;;;;11.55;3.42;;;;;;;;;;5096017;28;20032;-59
2022/09/28 04:37:47;;;;;;;11.55;3.72;;;;;;;;;;5095943;28;20065;-59
2022/09/28 04:40:14;;;;;;;11.40;3.72;;;;;;;;;;5095880;28;20111;-59
2022/09/28 04:42:41;;;;;;;7.50;3.13;;;;;;;;;;5095910;28;20027;-59
2022/09/28 04:45:08;;;;;;;10.75;3.22;;;;;;;;;;5095842;28;20381;-59
2022/09/28 04:47:35;;;;;;;12.23;3.30;;;;;;;;;;5095886;28;20024;-59
2022/09/28 04:50:02;;;;;;;10.48;3.28;;;;;;;;;;5094251;28;20048;-59
2022/09/28 04:52:29;;;;;;;10.25;3.50;;;;;;;;;;5095635;28;20481;-59
2022/09/28 04:54:56;;;;;;;7.28;3.28;;;;;;;;;;5095703;28;20097;-59
2022/09/28 04:57:23;;;;;;;9.50;3.40;;;;;;;;;;5095644;28;20024;-59
2022/09/28 04:59:50;;;;;;;10.35;3.30;;;;;;;;;;5095328;28;20047;-59
2022/09/28 05:02:17;;;;;;;10.38;2.83;;;;;;;;;;5095442;28;20510;-59
2022/09/28 05:04:44;;;;;;;9.15;3.15;;;;;;;;;;5095280;28;20493;-59
2022/09/28 05:07:11;;;;;;;12.25;3.55;;;;;;;;;;5095429;28;20046;-59
2022/09/28 05:09:38;;;;;;;9.50;3.10;;;;;;;;;;5095103;28;20042;-59
2022/09/28 05:12:04;;;;;;;8.93;2.97;;;;;;;;;;5095245;28;20071;-59
2022/09/28 05:14:31;;;;;;;10.40;3.20;;;;;;;;;;5095220;28;20035;-59
2022/09/28 05:16:58;;;;;;;9.30;3.15;;;;;;;;;;5095280;28;20035;-59
2022/09/28 05:19:25;;;;;;;7.05;2.70;;;;;;;;;;5095107;28;20032;-59
2022/09/28 05:21:53;;;;;;;9.90;3.00;;;;;;;;;;5095288;28;20036;-59
2022/09/28 05:24:19;;;;;;;8.63;3.33;;;;;;;;;;5095039;28;20036;-59
2022/09/28 05:26:46;;;;;;;6.20;2.90;;;;;;;;;;5094994;28;20024;-59
2022/09/28 05:29:19;;;;;;;7.10;2.92;;;;;;;;;;5094898;28;20024;-59
2022/09/28 05:31:46;;;;;;;7.63;2.95;;;;;;;;;;5094645;28;20024;-59
2022/09/28 05:34:13;;;;;;;7.13;2.80;;;;;;;;;;5094835;28;20125;-59
2022/09/28 05:36:41;;;;;;;7.43;2.80;;;;;;;;;;5094758;28;20260;-59
2022/09/28 05:39:09;;;;;;;6.03;2.75;;;;;;;;;;5094680;28;20035;-59
2022/09/28 05:41:36;;;;;;;10.60;2.92;;;;;;;;;;5094721;28;20028;-59
2022/09/28 05:44:02;;;;;;;7.43;2.80;;;;;;;;;;5094718;28;20026;-59
2022/09/28 05:46:30;;;;;;;7.10;2.80;;;;;;;;;;5094651;28;20016;-59
2022/09/28 05:48:58;;;;;;;6.03;2.20;;;;;;;;;;5093170;28;20039;-59
2022/09/28 05:51:25;;;;;;;7.60;2.75;;;;;;;;;;5094397;28;20038;-59
2022/09/28 05:53:54;;;;;;;7.00;2.47;;;;;;;;;;5094453;28;20040;-59
2022/09/28 05:56:21;;;;;;;6.55;2.25;;;;;;;;;;5094431;28;20084;-59
2022/09/28 05:58:48;;;;;;;7.78;2.50;;;;;;;;;;5094335;28;20023;-59
2022/09/28 06:01:15;;;;;;;6.53;2.60;;;;;;;;;;5091290;28;20162;-59
2022/09/28 06:03:42;;;;;;;6.43;2.28;;;;;;;;;;5094198;28;20024;-59
2022/09/28 06:06:09;;;;;;;9.35;2.67;;;;;;;;;;5094203;28;20095;-59
2022/09/28 06:08:35;;;;;;;6.55;2.42;;;;;;;;;;5094076;28;20047;-59
2022/09/28 06:11:02;;;;;;;7.03;2.40;;;;;;;;;;5094083;28;20020;-59
2022/09/28 06:13:30;;;;;;;7.35;2.25;;;;;;;;;;5094047;28;20028;-59
2022/09/28 06:15:57;;;;;;;4.28;1.88;;;;;;;;;;5093887;28;20036;-59
2022/09/28 06:18:24;;;;;;;5.35;2.47;;;;;;;;;;5093890;28;20024;-59
2022/09/28 06:20:51;;;;;;;4.20;2.05;;;;;;;;;;5093919;28;20359;-59
2022/09/28 06:23:18;;;;;;;6.45;2.05;;;;;;;;;;5093908;28;20035;-59
2022/09/28 06:25:45;;;;;;;5.32;2.22;;;;;;;;;;5093894;28;20024;-59
2022/09/28 06:28:13;;;;;;;6.32;2.10;;;;;;;;;;5093697;28;20062;-59
2022/09/28 06:33:26;;;;;;;5.43;2.10;;;;;;;;;;4968962;23;20051;-62
2022/09/28 06:35:53;;;;;;;5.78;2.10;;;;;;;;;;4955512;28;20378;-62
2022/09/28 06:38:20;;;;;;;4.10;1.88;;;;;;;;;;4954199;28;20420;-62
2022/09/28 06:40:47;;;;;;;4.95;2.13;;;;;;;;;;4955485;28;20023;-61
2022/09/28 06:43:14;;;;;;;4.88;2.03;;;;;;;;;;4954749;28;20031;-62
2022/09/28 06:45:42;;;;;;;3.97;1.90;;;;;;;;;;4955297;28;20020;-62
2022/09/28 06:48:10;;;;;;;3.95;1.85;;;;;;;;;;4955298;28;20020;-61
2022/09/28 06:50:39;;;;;;;4.53;2.00;;;;;;;;;;4955218;28;20409;-62
2022/09/28 06:53:08;;;;;;;5.57;2.20;;;;;;;;;;4955010;28;20031;-61
2022/09/28 06:55:35;;;;;;;4.00;1.75;;;;;;;;;;4955095;28;20089;-61
2022/09/28 06:58:06;;;;;;;4.40;2.10;;;;;;;;;;4955124;28;20027;-62
2022/09/28 07:00:34;;;;;;;5.65;2.08;;;;;;;;;;4955089;28;20024;-61
2022/09/28 07:03:06;;;;;;;4.05;1.98;;;;;;;;;;4954934;28;20503;-61
2022/09/28 07:05:35;;;;;;;6.95;2.25;;;;;;;;;;4954992;28;20039;-61
2022/09/28 07:08:03;;;;;;;4.30;1.70;;;;;;;;;;4954937;28;20114;-62
2022/09/28 07:10:31;;;;;;;4.55;1.73;;;;;;;;;;4954925;28;20489;-61
2022/09/28 07:13:01;;;;;;;5.78;1.92;;;;;;;;;;4954775;28;20031;-62
2022/09/28 07:15:28;;;;;;;4.28;1.70;;;;;;;;;;4954806;28;20027;-62
2022/09/28 07:17:59;;;;;;;4.07;1.73;;;;;;;;;;4954818;29;20034;-61
2022/09/28 07:20:26;;;;;;;4.75;1.58;;;;;;;;;;4954823;28;20023;-62
2022/09/28 07:22:54;;;;;;;4.78;1.80;;;;;;;;;;4955002;28;20027;-61
2022/09/28 07:25:21;;;;;;;4.07;1.77;;;;;;;;;;4954816;28;20022;-61
2022/09/28 07:27:48;;;;;;;5.00;1.73;;;;;;;;;;4953481;28;20035;-61
2022/09/28 07:30:16;;;;;;;3.90;1.50;;;;;;;;;;4954977;28;20473;-61
2022/09/28 07:32:45;;;;;;;4.78;1.83;;;;;;;;;;4954404;28;20405;-61
2022/09/28 07:35:12;;;;;;;5.25;1.73;;;;;;;;;;4954682;28;20027;-62
2022/09/28 07:37:39;;;;;;;5.32;1.67;;;;;;;;;;4954595;28;20549;-61
2022/09/28 07:42:52;;;;;;;5.18;1.80;;;;;;;;;;4954748;29;20046;-61
2022/09/28 07:45:25;;;;;;;3.45;1.50;;;;;;;;;;4954630;28;20024;-61
2022/09/28 07:47:55;;;;;;;4.60;1.70;;;;;;;;;;4954483;28;20037;-61
2022/09/28 07:50:22;;;;;;;5.88;1.80;;;;;;;;;;4953268;28;20121;-61
2022/09/28 07:52:49;;;;;;;3.55;1.70;;;;;;;;;;4954347;28;20090;-61
2022/09/28 07:55:16;;;;;;;3.67;1.52;;;;;;;;;;4957215;28;20027;-61
2022/09/28 07:57:45;;;;;;;4.18;1.50;;;;;;;;;;4957065;28;20438;-61
2022/09/28 08:00:13;;;;;;;4.47;1.50;;;;;;;;;;4958553;28;20031;-62
2022/09/28 08:02:40;;;;;;;2.85;1.20;;;;;;;;;;4958110;28;20035;-61
2022/09/28 08:05:08;;;;;;;3.67;1.40;;;;;;;;;;4958217;28;20027;-61
2022/09/28 08:07:37;;;;;;;4.53;1.75;;;;;;;;;;4958119;28;20109;-61
2022/09/28 08:10:04;;;;;;;2.15;1.00;;;;;;;;;;4958022;28;20054;-61
2022/09/28 08:12:31;;;;;;;3.20;1.40;;;;;;;;;;4957977;28;20035;-61
2022/09/28 08:14:59;;;;;;;3.10;1.40;;;;;;;;;;4958022;28;20023;-61
2022/09/28 08:17:25;;;;;;;2.90;1.42;;;;;;;;;;4958023;28;20099;-61
2022/09/28 08:22:38;;;;;;;4.25;1.13;;;;;;;;;;4958032;29;20039;-62
2022/09/28 08:25:05;;;;;;;3.08;1.50;;;;;;;;;;4957854;28;20111;-61
2022/09/28 08:27:33;;;;;;;3.97;1.30;;;;;;;;;;4957858;28;20063;-61
2022/09/28 08:30:00;;;;;;;2.78;1.25;;;;;;;;;;4957820;28;20020;-61
2022/09/28 08:32:28;;;;;;;3.72;1.42;;;;;;;;;;4957428;28;20051;-62
2022/09/28 08:34:55;;;;;;;3.10;1.10;;;;;;;;;;4957633;28;20034;-61
2022/09/28 08:37:22;;;;;;;2.85;1.15;;;;;;;;;;4957692;28;20023;-61
2022/09/28 08:39:49;;;;;;;2.53;1.20;;;;;;;;;;4957637;28;20077;-62
2022/09/28 08:42:41;;;;;;;3.47;1.35;;;;;;;;;;4957435;28;20034;-61
2022/09/28 08:45:11;;;;;;;1.83;0.95;;;;;;;;;;4957519;28;20493;-62
2022/09/28 08:50:32;;;;;;;2.13;1.25;;;;;;;;;;4957666;29;20046;-61
2022/09/28 08:53:05;;;;;;;2.20;1.05;;;;;;;;;;4957139;28;20040;-61
2022/09/28 08:55:33;;;;;;;2.60;1.08;;;;;;;;;;4957312;28;20078;-61
2022/09/28 08:58:09;;;;;;;3.00;1.08;;;;;;;;;;4957290;28;20478;-61
2022/09/28 09:00:39;;;;;;;4.80;1.50;;;;;;;;;;4957518;28;20074;-61
2022/09/28 09:03:09;;;;;;;3.65;1.20;;;;;;;;;;4957634;29;20034;-61
2022/09/28 09:05:55;;;;;;;2.22;1.02;;;;;;;;;;4956789;28;20055;-61
2022/09/28 09:08:41;;;;;;;3.08;1.20;;;;;;;;;;4957110;28;20035;-61
2022/09/28 09:11:08;;;;;;;3.22;1.20;;;;;;;;;;4936774;28;20035;-61
2022/09/28 09:13:58;;;;;;;6.72;1.40;;;;;;;;;;4956962;28;20070;-61
2022/09/28 09:16:32;;;;;;;2.55;1.00;;;;;;;;;;4951849;29;20370;-61
2022/09/28 09:19:21;;;;;;;3.17;1.05;;;;;;;;;;4956886;28;20020;-61
2022/09/28 09:21:48;;;;;;;4.25;1.02;;;;;;;;;;4956798;28;20102;-61
2022/09/28 09:24:25;;;;;;;2.58;1.08;;;;;;;;;;4955559;28;20110;-61
2022/09/28 09:27:05;;;;;;;1.65;0.90;;;;;;;;;;4956702;28;20504;-61
2022/09/28 09:29:32;;;;;;;3.72;0.98;;;;;;;;;;4956720;28;20044;-61
2022/09/28 09:32:05;;;;;;;3.20;1.23;;;;;;;;;;4955190;28;20058;-61
2022/09/28 09:34:38;;;;;;;2.83;1.05;;;;;;;;;;4956964;28;20089;-61
2022/09/28 09:37:16;;;;;;;4.93;1.05;;;;;;;;;;4955960;28;20027;-60
2022/09/28 09:39:43;;;;;;;6.72;1.20;;;;;;;;;;4956419;28;20038;-60
2022/09/28 09:42:10;;;;;;;2.92;1.20;;;;;;;;;;4956331;28;20031;-60
2022/09/28 09:44:55;;;;;;;3.50;1.20;;;;;;;;;;4956485;28;20826;-60
2022/09/28 09:47:26;;;;;;;3.67;1.00;;;;;;;;;;4956341;28;20489;-60
2022/09/28 09:50:11;;;;;;;2.00;0.88;;;;;;;;;;4956285;28;20067;-61
2022/09/28 09:52:47;;;;;;;4.63;1.17;;;;;;;;;;4956184;28;20038;-60
2022/09/28 09:55:16;;;;;;;2.58;0.85;;;;;;;;;;4956218;28;20023;-60
2022/09/28 09:57:50;;;;;;;2.50;1.10;;;;;;;;;;4956155;28;20035;-61
2022/09/28 10:00:17;;;;;;;2.30;1.00;;;;;;;;;;4956422;28;20110;-60
2022/09/28 10:02:46;;;;;;;3.88;1.10;;;;;;;;;;4956021;28;20023;-60
2022/09/28 10:05:13;;;;;;;2.75;1.10;;;;;;;;;;4955998;28;20521;-60
2022/09/28 10:07:45;;;;;;;2.65;1.33;;;;;;;;;;4955976;28;20030;-61
2022/09/28 10:10:14;;;;;;;4.57;1.17;;;;;;;;;;4956013;28;20019;-61
2022/09/28 10:12:41;;;;;;;2.40;1.02;;;;;;;;;;4955711;28;20309;-61
2022/09/28 10:15:08;;;;;;;2.10;0.85;;;;;;;;;;4954653;28;20552;-60
2022/09/28 10:17:37;;;;;;;6.35;1.23;;;;;;;;;;4955033;28;20031;-60
2022/09/28 10:20:04;;;;;;;3.75;0.98;;;;;;;;;;4954513;29;20373;-61
2022/09/28 10:22:31;;;;;;;2.13;0.90;;;;;;;;;;4955664;28;20035;-61
2022/09/28 10:24:59;;;;;;;4.07;1.00;;;;;;;;;;4955712;28;20051;-60
2022/09/28 10:27:28;;;;;;;3.60;1.02;;;;;;;;;;4955559;28;20023;-61
2022/09/28 10:29:57;;;;;;;3.08;0.93;;;;;;;;;;4955612;28;20489;-61
2022/09/28 10:32:26;;;;;;;2.53;1.10;;;;;;;;;;4955233;28;20043;-61
2022/09/28 10:34:54;;;;;;;1.92;0.70;;;;;;;;;;4955526;28;20035;-60
2022/09/28 10:37:23;;;;;;;2.80;0.73;;;;;;;;;;4955534;28;20051;-61
2022/09/28 10:39:55;;;;;;;1.73;0.98;;;;;;;;;;4955316;28;20039;-61
2022/09/28 10:42:32;;;;;;;5.47;1.30;;;;;;;;;;4955360;28;20020;-61
2022/09/28 10:44:59;;;;;;;2.65;0.80;;;;;;;;;;4955328;28;20043;-61
2022/09/28 10:47:29;;;;;;;3.75;0.90;;;;;;;;;;4955302;28;20046;-61
2022/09/28 10:49:56;;;;;;;3.13;0.90;;;;;;;;;;4955176;28;20058;-61
2022/09/28 10:52:29;;;;;;;2.78;1.10;;;;;;;;;;4955090;28;20077;-60
2022/09/28 10:54:56;;;;;;;3.72;0.93;;;;;;;;;;4955160;28;20034;-61
2022/09/28 10:57:32;;;;;;;2.08;0.90;;;;;;;;;;4955107;28;20031;-61
2022/09/28 11:00:00;;;;;;;2.42;1.05;;;;;;;;;;4954991;28;20504;-60
2022/09/28 11:02:31;;;;;;;3.65;1.17;;;;;;;;;;4954948;28;20050;-60
2022/09/28 11:04:59;;;;;;;5.85;1.13;;;;;;;;;;4950899;28;20039;-62
2022/09/28 11:07:29;;;;;;;3.50;0.80;;;;;;;;;;4945696;28;20482;-61
2022/09/28 11:09:57;;;;;;;2.35;0.85;;;;;;;;;;4942715;28;20035;-61
2022/09/28 11:12:26;;;;;;;3.63;0.93;;;;;;;;;;4937029;28;20115;-60
2022/09/28 11:15:01;;;;;;;3.42;1.13;;;;;;;;;;4946133;29;20031;-61
2022/09/28 11:17:32;;;;;;;3.00;0.98;;;;;;;;;;4954899;28;20026;-60
2022/09/28 11:20:20;;;;;;;5.78;1.00;;;;;;;;;;4950361;29;20031;-60
2022/09/28 11:22:47;;;;;;;6.40;1.10;;;;;;;;;;4949896;29;20389;-61
2022/09/28 11:25:14;;;;;;;8.70;1.10;;;;;;;;;;4949943;29;20102;-58
2022/09/28 11:27:41;;;;;;;4.32;1.10;;;;;;;;;;4949220;28;20489;-60
2022/09/28 11:30:22;;;;;;;4.43;0.95;;;;;;;;;;4952963;29;20031;-60
2022/09/28 11:32:49;;;;;;;6.05;0.93;;;;;;;;;;4953110;29;20139;-61
2022/09/28 11:35:28;;;;;;;10.63;0.95;;;;;;;;;;4949959;29;20105;-61
2022/09/28 11:38:11;;;;;;;4.68;1.15;;;;;;;;;;4950695;29;20409;-60
2022/09/28 11:41:04;;;;;;;6.25;1.05;;;;;;;;;;4950849;29;20059;-59
2022/09/28 11:43:34;;;;;;;8.23;1.15;;;;;;;;;;4952428;28;20042;-61
2022/09/28 11:46:05;;;;;;;7.68;1.35;;;;;;;;;;4951738;28;20030;-60
2022/09/28 11:48:47;;;;;;;8.02;1.65;;;;;;;;;;4952863;28;20035;-61
2022/09/28 11:51:27;;;;;;;10.90;1.90;;;;;;;;;;4952680;29;20024;-59
2022/09/28 11:54:14;;;;;;;11.13;1.88;;;;;;;;;;4966198;28;20058;-59
2022/09/28 11:56:46;;;;;;;8.50;1.45;;;;;;;;;;4965522;28;20553;-59
2022/09/28 11:59:16;;;;;;;10.32;1.45;;;;;;;;;;4949871;28;20070;-60
2022/09/28 12:01:49;;;;;;;8.43;1.67;;;;;;;;;;4950161;29;20111;-59
2022/09/28 12:04:22;;;;;;;7.65;1.60;;;;;;;;;;4951921;29;20027;-60
2022/09/28 12:07:00;;;;;;;23.23;2.63;;;;;;;;;;4952194;29;20015;-60
2022/09/28 12:09:34;;;;;;;11.40;1.80;;;;;;;;;;4951064;29;20058;-62
2022/09/28 12:12:03;;;;;;;12.80;1.98;;;;;;;;;;4950607;29;20035;-60
2022/09/28 12:14:33;;;;;;;9.32;1.95;;;;;;;;;;4953262;28;20043;-61
2022/09/28 12:17:03;;;;;;;9.40;1.40;;;;;;;;;;4950567;29;20023;-59
2022/09/28 12:19:30;;;;;;;13.88;1.70;;;;;;;;;;4953390;28;20031;-61
2022/09/28 12:22:00;;;;;;;8.93;1.70;;;;;;;;;;4947783;29;20482;-62
2022/09/28 12:24:27;;;;;;;11.07;1.67;;;;;;;;;;4953487;28;20417;-62
2022/09/28 12:26:57;;;;;;;8.27;1.50;;;;;;;;;;4952517;29;20023;-61
2022/09/28 12:29:29;;;;;;;7.40;1.60;;;;;;;;;;4953759;28;20519;-61
2022/09/28 12:31:56;;;;;;;11.23;1.75;;;;;;;;;;4951302;29;20438;-60
2022/09/28 12:34:24;;;;;;;9.93;1.67;;;;;;;;;;4948691;28;20114;-62
2022/09/28 12:36:51;;;;;;;5.25;1.27;;;;;;;;;;4951770;28;20035;-62
2022/09/28 12:39:24;;;;;;;10.68;1.58;;;;;;;;;;4953378;28;20031;-60
2022/09/28 12:42:09;;;;;;;12.07;1.83;;;;;;;;;;4954459;28;20433;-60
2022/09/28 12:44:47;;;;;;;6.25;1.40;;;;;;;;;;4952933;29;20053;-61
2022/09/28 12:47:14;;;;;;;10.57;2.17;;;;;;;;;;4952896;29;20120;-60
2022/09/28 12:49:47;;;;;;;10.15;1.85;;;;;;;;;;4956685;29;20058;-61
2022/09/28 12:52:37;;;;;;;14.63;2.03;;;;;;;;;;4956453;29;20027;-56
2022/09/28 12:55:22;;;;;;;9.80;2.10;;;;;;;;;;4955526;29;20024;-57
2022/09/28 12:57:49;;;;;;;10.90;1.70;;;;;;;;;;4950968;28;20055;-60
2022/09/28 13:00:24;;;;;;;12.93;1.92;;;;;;;;;;4954936;29;20051;-57
2022/09/28 13:03:00;;;;;;;6.53;1.42;;;;;;;;;;4954190;28;20031;-60
2022/09/28 13:05:27;;;;;;;5.97;1.40;;;;;;;;;;4952753;29;20397;-58
2022/09/28 13:08:01;;;;;;;7.63;1.80;;;;;;;;;;4953219;28;20489;-57
2022/09/28 13:10:31;;;;;;;7.38;1.48;;;;;;;;;;4953677;29;20039;-59
2022/09/28 13:13:11;;;;;;;37.67;3.47;;;;;;;;;;4956235;28;20039;-58
2022/09/28 13:15:58;;;;;;;10.85;1.70;;;;;;;;;;4954622;29;20558;-57
2022/09/28 13:18:29;;;;;;;15.68;1.83;;;;;;;;;;4955071;29;20035;-62
2022/09/28 13:20:59;;;;;;;10.63;1.95;;;;;;;;;;4955845;28;20023;-60
2022/09/28 13:23:28;;;;;;;12.35;1.48;;;;;;;;;;4952059;29;20390;-61
2022/09/28 13:25:55;;;;;;;8.93;1.30;;;;;;;;;;4955280;29;20114;-60
2022/09/28 13:28:24;;;;;;;8.82;1.45;;;;;;;;;;4955399;28;20494;-60
2022/09/28 13:30:55;;;;;;;8.23;1.48;;;;;;;;;;4955883;28;20031;-61
2022/09/28 13:33:39;;;;;;;8.40;1.40;;;;;;;;;;4955667;29;20051;-60
2022/09/28 13:36:27;;;;;;;11.60;1.88;;;;;;;;;;4955251;29;20649;-55
2022/09/28 13:38:55;;;;;;;5.00;1.23;;;;;;;;;;4968661;28;20023;-57
2022/09/28 13:41:30;;;;;;;5.45;1.08;;;;;;;;;;4955111;28;20031;-56
2022/09/28 13:44:12;;;;;;;5.22;1.27;;;;;;;;;;4955188;29;20031;-57
2022/09/28 13:46:39;;;;;;;7.30;1.65;;;;;;;;;;4952856;28;20041;-61
2022/09/28 13:49:16;;;;;;;7.63;1.42;;;;;;;;;;4955179;29;20031;-58
2022/09/28 13:52:04;;;;;;;7.95;1.33;;;;;;;;;;4955268;28;20028;-55
2022/09/28 13:54:35;;;;;;;7.20;1.48;;;;;;;;;;4955346;28;20039;-58
2022/09/28 13:57:11;;;;;;;7.38;1.08;;;;;;;;;;4954906;28;20039;-61
2022/09/28 13:59:54;;;;;;;11.00;1.30;;;;;;;;;;4955493;28;20031;-55
2022/09/28 14:02:31;;;;;;;10.20;1.55;;;;;;;;;;4955918;28;20031;-53
2022/09/28 14:05:05;;;;;;;8.57;1.52;;;;;;;;;;4955999;28;20023;-56
2022/09/28 14:07:35;;;;;;;8.48;1.30;;;;;;;;;;4955130;28;20019;-57
2022/09/28 14:10:14;;;;;;;8.98;1.30;;;;;;;;;;4953539;28;20031;-59
2022/09/28 14:12:44;;;;;;;5.47;1.20;;;;;;;;;;4955472;28;20039;-60
2022/09/28 14:15:30;;;;;;;8.55;1.15;;;;;;;;;;4955218;28;20493;-60
2022/09/28 14:18:17;;;;;;;7.53;1.90;;;;;;;;;;4954901;28;20548;-59
2022/09/28 14:20:57;;;;;;;6.28;1.40;;;;;;;;;;4954652;28;20035;-60
2022/09/28 14:23:34;;;;;;;8.82;1.30;;;;;;;;;;4955495;28;20034;-59
2022/09/28 14:26:19;;;;;;;9.48;1.40;;;;;;;;;;4954961;28;20385;-61
2022/09/28 14:28:53;;;;;;;9.60;1.73;;;;;;;;;;4954031;28;20023;-61
2022/09/28 14:31:27;;;;;;;5.75;1.30;;;;;;;;;;4954311;28;20170;-61
2022/09/28 14:33:56;;;;;;;4.72;1.48;;;;;;;;;;4954920;28;20043;-61
2022/09/28 14:41:08;;;;;;;6.00;1.25;;;;;;;;;;4954721;28;20027;-61
2022/09/28 14:42:24;;;;;;;6.82;1.38;;;;;;;;;;4941811;29;20122;-60
2022/09/28 14:45:05;;;;;;;10.77;1.23;;;;;;;;;;4949412;29;20548;-63
2022/09/28 14:47:42;;;;;;;10.98;1.70;;;;;;;;;;4951729;29;20035;-61
2022/09/28 14:50:26;;;;;;;10.60;1.30;;;;;;;;;;4954917;29;20031;-62
2022/09/28 14:53:13;;;;;;;12.32;1.88;;;;;;;;;;4954334;29;20412;-60
2022/09/28 14:55:50;;;;;;;16.27;1.60;;;;;;;;;;4954898;28;20031;-61
2022/09/28 14:58:21;;;;;;;7.20;1.42;;;;;;;;;;4954297;29;20382;-60
2022/09/28 15:00:50;;;;;;;21.88;2.00;;;;;;;;;;4954868;29;20027;-60
2022/09/28 15:03:17;;;;;;;19.17;2.05;;;;;;;;;;4953802;28;20074;-60
2022/09/28 15:05:48;;;;;;;19.25;2.10;;;;;;;;;;4954970;29;20030;-60
2022/09/28 15:08:17;;;;;;;26.88;2.55;;;;;;;;;;4954142;29;20137;-57
2022/09/28 15:10:48;;;;;;;24.60;2.55;;;;;;;;;;4953714;28;20035;-60
2022/09/28 15:13:24;;;;;;;35.17;2.47;;;;;;;;;;4953429;29;20027;-62
2022/09/28 15:15:54;;;;;;;23.38;2.53;;;;;;;;;;4954683;29;20046;-61
2022/09/28 15:18:32;;;;;;;20.80;2.50;;;;;;;;;;4954000;29;20015;-60